createdAt,value
2019-05-22T00:02:18.699Z,94934.02
2019-05-22T00:04:51.906Z,94934.73
2019-05-22T00:07:22.225Z,94928.23
2019-05-22T00:09:52.980Z,94926.83
2019-05-22T00:12:21.905Z,94934.16
2019-05-22T00:14:52.910Z,94931.06
2019-05-22T00:17:26.102Z,94924.95
2019-05-22T00:19:55.605Z,94934.05
2019-05-22T00:22:31.750Z,94938.82
2019-05-22T00:25:01.648Z,94923.66
2019-05-22T00:27:32.458Z,94922.75
2019-05-22T00:30:02.270Z,94932.47
2019-05-22T00:32:31.044Z,94932.14
2019-05-22T00:35:00.368Z,94936.77
2019-05-22T00:37:29.785Z,94944.12
2019-05-22T00:40:00.046Z,94946.80
2019-05-22T00:42:29.036Z,94938.48
2019-05-22T00:44:59.034Z,94943.98
2019-05-22T00:47:30.014Z,94938.06
2019-05-22T00:50:00.209Z,94932.03
2019-05-22T00:52:41.089Z,94940.59
2019-05-22T00:55:14.338Z,94946.25
2019-05-22T00:57:50.846Z,94949.00
2019-05-22T01:00:22.128Z,94951.52
2019-05-22T01:02:52.325Z,94955.93
2019-05-22T01:05:22.725Z,94957.23
2019-05-22T01:07:52.233Z,94951.77
2019-05-22T01:10:22.833Z,94955.67
2019-05-22T01:12:56.277Z,94957.98
2019-05-22T01:15:26.559Z,94959.83
2019-05-22T01:17:56.570Z,94952.78
2019-05-22T01:20:26.842Z,94967.72
2019-05-22T01:22:58.019Z,94952.41
2019-05-22T01:25:28.290Z,94964.23
2019-05-22T01:27:58.202Z,94959.92
2019-05-22T01:30:28.561Z,94956.96
2019-05-22T01:33:06.237Z,94956.41
2019-05-22T01:35:39.453Z,94956.32
2019-05-22T01:38:10.614Z,94960.72
2019-05-22T01:40:50.190Z,94955.53
2019-05-22T01:43:20.458Z,94955.00
2019-05-22T01:45:55.376Z,94956.56
2019-05-22T01:48:27.415Z,94960.82
2019-05-22T01:50:57.697Z,94968.98
2019-05-22T01:53:29.356Z,94975.91
2019-05-22T01:55:59.732Z,94965.08
2019-05-22T01:58:30.897Z,94967.39
2019-05-22T02:01:00.929Z,94965.63
2019-05-22T02:03:31.132Z,94961.44
2019-05-22T02:06:01.477Z,94962.98
2019-05-22T02:08:32.299Z,94954.11
2019-05-22T02:11:01.798Z,94957.59
2019-05-22T02:13:33.715Z,94957.59
2019-05-22T02:16:02.505Z,94947.75
2019-05-22T02:18:34.193Z,94957.14
2019-05-22T02:21:04.679Z,94960.68
2019-05-22T02:23:35.689Z,94963.28
2019-05-22T02:26:06.855Z,94956.51
2019-05-22T02:28:37.061Z,94957.47
2019-05-22T02:31:07.843Z,94944.29
2019-05-22T02:33:39.413Z,94958.27
2019-05-22T02:36:08.111Z,94962.17
2019-05-22T02:38:37.683Z,94955.09
2019-05-22T02:41:08.382Z,94951.51
2019-05-22T02:43:37.382Z,94951.36
2019-05-22T02:46:07.664Z,94948.05
2019-05-22T02:48:37.377Z,94947.42
2019-05-22T02:51:07.193Z,94950.23
2019-05-22T02:53:36.401Z,94957.81
2019-05-22T02:56:06.426Z,94961.03
2019-05-22T02:58:35.831Z,94966.81
2019-05-22T03:01:06.381Z,94969.34
2019-05-22T03:03:36.640Z,94970.34
2019-05-22T03:06:08.219Z,94965.08
2019-05-22T03:08:57.891Z,94957.83
2019-05-22T03:11:34.563Z,94959.88
2019-05-22T03:14:03.955Z,94959.81
2019-05-22T03:16:51.490Z,94967.68
2019-05-22T03:19:32.429Z,94969.41
2019-05-22T03:22:04.490Z,94975.78
2019-05-22T03:24:35.105Z,94979.30
2019-05-22T03:27:05.678Z,94980.01
2019-05-22T03:29:58.297Z,94983.40
2019-05-22T03:32:27.363Z,94988.64
2019-05-22T03:34:57.482Z,94979.30
2019-05-22T03:37:26.106Z,94987.09
2019-05-22T03:39:56.176Z,94989.53
2019-05-22T03:42:28.286Z,94983.04
2019-05-22T03:44:57.241Z,94981.02
2019-05-22T03:47:26.674Z,94976.77
2019-05-22T03:49:55.678Z,94988.09
2019-05-22T03:52:25.871Z,94984.04
2019-05-22T03:54:56.000Z,94983.19
2019-05-22T03:57:29.094Z,94985.91
2019-05-22T03:59:58.393Z,94988.92
2019-05-22T04:02:28.899Z,94986.88
2019-05-22T04:04:57.540Z,95001.58
2019-05-22T04:07:27.275Z,95009.06
2019-05-22T04:09:57.589Z,95006.04
2019-05-22T04:12:27.422Z,95009.77
2019-05-22T04:14:57.311Z,95001.83
2019-05-22T04:17:27.019Z,95001.94
2019-05-22T04:19:56.291Z,95004.15
2019-05-22T04:22:24.942Z,94993.82
2019-05-22T04:24:54.644Z,94998.81
2019-05-22T04:27:23.392Z,94997.08
2019-05-22T04:29:52.712Z,94995.55
2019-05-22T04:32:22.979Z,94987.23
2019-05-22T04:34:53.144Z,94996.28
2019-05-22T04:37:23.659Z,94981.46
2019-05-22T04:39:54.730Z,94983.77
2019-05-22T04:42:23.636Z,94980.79
2019-05-22T04:45:10.230Z,94989.56
2019-05-22T04:47:40.117Z,94989.22
2019-05-22T04:50:10.533Z,94996.69
2019-05-22T04:52:40.948Z,95001.04
2019-05-22T04:55:11.369Z,94997.84
2019-05-22T04:57:40.276Z,94995.17
2019-05-22T05:00:10.875Z,94998.56
2019-05-22T05:02:40.648Z,94999.52
2019-05-22T05:05:11.251Z,94992.13
2019-05-22T05:07:41.492Z,94986.36
2019-05-22T05:10:11.185Z,94982.59
2019-05-22T05:12:41.917Z,94981.77
2019-05-22T05:15:11.314Z,94975.73
2019-05-22T05:17:40.264Z,94979.75
2019-05-22T05:20:21.715Z,94974.97
2019-05-22T05:22:45.823Z,94980.09
2019-05-22T05:25:16.062Z,94979.75
2019-05-22T05:27:48.886Z,94982.33
2019-05-22T05:30:23.919Z,94986.59
2019-05-22T05:32:52.738Z,94990.80
2019-05-22T05:35:22.153Z,94993.52
2019-05-22T05:37:51.635Z,94991.86
2019-05-22T05:40:32.505Z,94994.71
2019-05-22T05:43:01.728Z,94988.45
2019-05-22T05:45:32.636Z,94990.36
2019-05-22T05:48:03.349Z,94997.95
2019-05-22T05:50:39.449Z,94998.78
2019-05-22T05:53:06.472Z,95004.62
2019-05-22T05:56:01.005Z,95012.09
2019-05-22T05:58:30.921Z,95019.24
2019-05-22T06:01:07.441Z,95019.11
2019-05-22T06:03:39.764Z,95024.27
2019-05-22T06:06:28.191Z,95018.91
2019-05-22T06:08:59.305Z,95019.05
2019-05-22T06:11:40.149Z,95014.17
2019-05-22T06:14:12.018Z,95015.77
2019-05-22T06:16:54.287Z,95021.05
2019-05-22T06:19:23.959Z,95016.84
2019-05-22T06:21:53.472Z,95028.30
2019-05-22T06:24:34.845Z,95021.34
2019-05-22T06:27:17.267Z,95021.55
2019-05-22T06:29:57.793Z,95032.48
2019-05-22T06:32:52.671Z,95015.66
2019-05-22T06:35:21.855Z,95015.66
2019-05-22T06:37:59.244Z,95009.44
2019-05-22T06:40:29.637Z,95014.45
2019-05-22T06:43:22.750Z,95013.63
2019-05-22T06:45:51.425Z,95017.88
2019-05-22T06:48:20.057Z,95022.03
2019-05-22T06:50:51.499Z,95028.30
2019-05-22T06:53:20.812Z,95027.95
2019-05-22T06:55:50.467Z,95024.07
2019-05-22T06:58:19.828Z,95020.73
2019-05-22T07:00:48.561Z,95017.52
2019-05-22T07:03:17.894Z,95009.45
2019-05-22T07:05:47.694Z,95006.92
2019-05-22T07:08:16.752Z,95006.06
2019-05-22T07:10:45.389Z,95003.78
2019-05-22T07:13:14.915Z,94989.56
2019-05-22T07:15:46.322Z,94985.22
2019-05-22T07:18:27.223Z,94987.91
2019-05-22T07:20:56.967Z,94977.05
2019-05-22T07:23:27.723Z,94982.27
2019-05-22T07:25:57.544Z,94976.18
2019-05-22T07:28:26.732Z,94980.37
2019-05-22T07:30:56.141Z,94970.03
2019-05-22T07:33:25.055Z,94968.45
2019-05-22T07:36:09.372Z,94964.69
2019-05-22T07:38:24.300Z,94965.94
2019-05-22T07:40:53.999Z,94965.54
2019-05-22T07:43:23.211Z,94963.58
2019-05-22T07:45:53.608Z,94964.45
2019-05-22T07:48:26.020Z,94960.91
2019-05-22T07:50:56.232Z,94963.04
2019-05-22T07:53:26.678Z,94963.90
2019-05-22T07:55:56.505Z,94965.11
2019-05-22T07:58:26.594Z,94967.58
2019-05-22T08:01:00.063Z,94968.50
2019-05-22T08:03:30.276Z,94975.51
2019-05-22T08:06:00.081Z,94967.07
2019-05-22T08:08:31.804Z,94970.89
2019-05-22T08:11:00.993Z,94968.52
2019-05-22T08:13:30.664Z,94964.23
2019-05-22T08:15:59.603Z,94970.03
2019-05-22T08:18:30.775Z,94970.19
2019-05-22T08:20:59.616Z,94966.81
2019-05-22T08:23:28.343Z,94966.30
2019-05-22T08:25:59.448Z,94963.02
2019-05-22T08:28:30.743Z,94970.45
2019-05-22T08:31:01.044Z,94967.31
2019-05-22T08:33:31.906Z,94971.89
2019-05-22T08:36:00.757Z,94966.06
2019-05-22T08:38:31.941Z,94977.94
2019-05-22T08:41:03.478Z,94975.56
2019-05-22T08:43:55.919Z,94973.08
2019-05-22T08:46:07.310Z,94976.64
2019-05-22T08:48:46.674Z,94944.25
2019-05-22T08:51:10.636Z,94975.67
2019-05-22T08:53:47.337Z,94971.03
2019-05-22T08:56:12.981Z,94977.62
2019-05-22T08:58:42.634Z,94975.59
2019-05-22T09:01:12.778Z,94973.44
2019-05-22T09:03:42.291Z,94976.59
2019-05-22T09:06:12.294Z,94976.16
2019-05-22T09:08:41.964Z,94972.75
2019-05-22T09:11:13.142Z,94970.71
2019-05-22T09:13:42.259Z,94974.28
2019-05-22T09:16:13.876Z,94960.06
2019-05-22T09:18:43.724Z,94968.61
2019-05-22T09:21:13.375Z,94964.20
2019-05-22T09:23:42.438Z,94957.25
2019-05-22T09:26:11.416Z,94947.48
2019-05-22T09:28:40.422Z,94947.20
2019-05-22T09:31:09.641Z,94944.58
2019-05-22T09:33:38.631Z,94936.03
2019-05-22T09:36:08.818Z,94934.98
2019-05-22T09:38:37.734Z,94932.09
2019-05-22T09:41:07.043Z,94925.53
2019-05-22T09:43:36.901Z,94933.14
2019-05-22T09:46:06.342Z,94929.77
2019-05-22T09:48:35.476Z,94939.31
2019-05-22T09:51:05.060Z,94937.97
2019-05-22T09:53:35.571Z,94937.52
2019-05-22T09:56:04.977Z,94936.92
2019-05-22T09:58:35.426Z,94932.50
2019-05-22T10:01:05.700Z,94932.50
2019-05-22T10:03:35.844Z,94928.33
2019-05-22T10:06:06.330Z,94914.43
2019-05-22T10:08:36.117Z,94923.21
2019-05-22T10:11:05.850Z,94922.48
2019-05-22T10:13:35.686Z,94924.14
2019-05-22T10:16:05.541Z,94913.98
2019-05-22T10:18:34.749Z,94908.53
2019-05-22T10:21:03.787Z,94901.74
2019-05-22T10:23:32.737Z,94908.66
2019-05-22T10:26:02.635Z,94898.98
2019-05-22T10:28:33.908Z,94901.61
2019-05-22T10:31:02.961Z,94910.80
2019-05-22T10:33:32.786Z,94915.23
2019-05-22T10:36:04.182Z,94911.66
2019-05-22T10:38:33.868Z,94910.27
2019-05-22T10:41:04.423Z,94906.38
2019-05-22T10:43:33.558Z,94897.65
2019-05-22T10:46:04.328Z,94902.72
2019-05-22T10:48:32.936Z,94902.72
2019-05-22T10:51:01.598Z,94895.58
2019-05-22T10:53:34.064Z,94890.51
2019-05-22T10:56:01.573Z,94889.66
2019-05-22T10:58:32.297Z,94897.91
2019-05-22T11:01:01.840Z,94889.16
2019-05-22T11:03:31.291Z,94893.74
2019-05-22T11:06:07.256Z,94886.30
2019-05-22T11:08:34.486Z,94881.30
2019-05-22T11:11:04.678Z,94874.85
2019-05-22T11:13:34.538Z,94879.83
2019-05-22T11:16:05.843Z,94884.75
2019-05-22T11:18:36.340Z,94882.79
2019-05-22T11:21:05.947Z,94873.72
2019-05-22T11:23:50.321Z,94869.67
2019-05-22T11:26:06.479Z,94861.80
2019-05-22T11:28:36.921Z,94849.77
2019-05-22T11:31:06.498Z,94849.19
2019-05-22T11:33:35.754Z,94856.17
2019-05-22T11:36:06.687Z,94848.61
2019-05-22T11:38:35.563Z,94827.81
2019-05-22T11:41:06.785Z,94839.41
2019-05-22T11:43:36.656Z,94839.25
2019-05-22T11:46:06.949Z,94845.44
2019-05-22T11:48:35.880Z,94838.72
2019-05-22T11:51:06.393Z,94839.86
2019-05-22T11:53:37.620Z,94844.69
2019-05-22T11:56:08.402Z,94841.01
2019-05-22T11:58:37.715Z,94850.24
2019-05-22T12:01:06.926Z,94844.35
2019-05-22T12:03:37.117Z,94840.74
2019-05-22T12:06:07.810Z,94834.95
2019-05-22T12:08:37.161Z,94836.15
2019-05-22T12:11:06.206Z,94835.78
2019-05-22T12:13:36.560Z,94827.16
2019-05-22T12:16:06.067Z,94829.23
2019-05-22T12:18:37.208Z,94824.09
2019-05-22T12:21:07.647Z,94814.07
2019-05-22T12:23:37.568Z,94821.98
2019-05-22T12:26:09.226Z,94817.19
2019-05-22T12:28:39.066Z,94812.39
2019-05-22T12:31:09.585Z,94815.52
2019-05-22T12:33:39.953Z,94815.41
2019-05-22T12:36:12.668Z,94810.95
2019-05-22T12:38:42.977Z,94810.59
2019-05-22T12:41:14.154Z,94802.55
2019-05-22T12:43:45.296Z,94796.42
2019-05-22T12:46:16.772Z,94795.53
2019-05-22T12:48:45.744Z,94789.45
2019-05-22T12:51:16.467Z,94779.77
2019-05-22T12:53:45.960Z,94777.34
2019-05-22T12:56:15.970Z,94774.11
2019-05-22T12:58:46.290Z,94771.89
2019-05-22T13:01:15.822Z,94773.56
2019-05-22T13:03:45.925Z,94774.68
2019-05-22T13:06:15.853Z,94775.34
2019-05-22T13:08:45.621Z,94772.89
2019-05-22T13:11:15.386Z,94776.47
2019-05-22T13:13:45.858Z,94780.48
2019-05-22T13:16:16.042Z,94783.23
2019-05-22T13:18:46.714Z,94786.05
2019-05-22T13:21:19.382Z,94781.09
2019-05-22T13:23:51.881Z,94775.03
2019-05-22T13:26:22.308Z,94784.19
2019-05-22T13:28:52.901Z,94776.64
2019-05-22T13:31:23.731Z,94783.21
2019-05-22T13:33:53.915Z,94787.09
2019-05-22T13:36:24.671Z,94783.08
2019-05-22T13:38:54.972Z,94780.05
2019-05-22T13:41:27.256Z,94782.07
2019-05-22T13:43:56.205Z,94776.03
2019-05-22T13:46:26.042Z,94766.92
2019-05-22T13:48:57.467Z,94765.98
2019-05-22T13:51:28.031Z,94758.31
2019-05-22T13:53:56.670Z,94756.64
2019-05-22T13:56:26.935Z,94756.66
2019-05-22T13:58:57.208Z,94747.30
2019-05-22T14:01:26.227Z,94750.81
2019-05-22T14:03:54.954Z,94745.23
2019-05-22T14:06:27.040Z,94741.98
2019-05-22T14:08:56.124Z,94737.81
2019-05-22T14:11:28.402Z,94736.98
2019-05-22T14:13:59.646Z,94737.35
2019-05-22T14:16:29.768Z,94735.46
2019-05-22T14:18:59.700Z,94725.41
2019-05-22T14:21:29.413Z,94720.72
2019-05-22T14:23:58.672Z,94713.70
2019-05-22T14:26:29.884Z,94711.33
2019-05-22T14:28:58.613Z,94706.27
2019-05-22T14:31:28.056Z,94707.71
2019-05-22T14:33:58.451Z,94701.95
2019-05-22T14:36:28.339Z,94706.91
2019-05-22T14:38:57.684Z,94705.81
2019-05-22T14:41:26.388Z,94714.17
2019-05-22T14:43:55.709Z,94716.43
2019-05-22T14:46:27.552Z,94707.02
2019-05-22T14:48:56.342Z,94703.97
2019-05-22T14:51:25.877Z,94697.63
2019-05-22T14:53:56.830Z,94697.80
2019-05-22T14:56:26.764Z,94698.52
2019-05-22T14:58:56.173Z,94692.86
2019-05-22T15:01:27.253Z,94685.34
2019-05-22T15:03:56.328Z,94685.62
2019-05-22T15:06:26.191Z,94688.05
2019-05-22T15:08:57.030Z,94687.58
2019-05-22T15:11:26.476Z,94681.19
2019-05-22T15:13:55.985Z,94683.25
2019-05-22T15:16:26.742Z,94681.00
2019-05-22T15:18:55.765Z,94677.38
2019-05-22T15:21:25.976Z,94675.03
2019-05-22T15:23:56.289Z,94676.77
2019-05-22T15:26:26.451Z,94670.72
2019-05-22T15:28:55.783Z,94672.28
2019-05-22T15:31:24.818Z,94665.59
2019-05-22T15:33:55.476Z,94665.91
2019-05-22T15:36:26.189Z,94665.26
2019-05-22T15:38:55.409Z,94662.98
2019-05-22T15:41:28.740Z,94658.58
2019-05-22T15:43:59.761Z,94666.14
2019-05-22T15:46:29.627Z,94667.19
2019-05-22T15:49:00.438Z,94672.68
2019-05-22T15:51:32.639Z,94681.38
2019-05-22T15:54:03.890Z,94668.20
2019-05-22T15:56:34.365Z,94674.28
2019-05-22T15:59:07.011Z,94667.61
2019-05-22T16:01:37.174Z,94672.95
2019-05-22T16:04:08.059Z,94664.14
2019-05-22T16:06:38.007Z,94662.03
2019-05-22T16:09:10.103Z,94664.93
2019-05-22T16:11:39.038Z,94667.28
2019-05-22T16:14:08.750Z,94665.60
2019-05-22T16:16:37.627Z,94672.87
2019-05-22T16:19:09.113Z,94669.81
2019-05-22T16:21:41.596Z,94667.46
2019-05-22T16:24:11.921Z,94674.91
2019-05-22T16:26:41.324Z,94674.64
2019-05-22T16:29:10.632Z,94679.32
2019-05-22T16:31:40.035Z,94677.51
2019-05-22T16:34:09.384Z,94685.45
2019-05-22T16:36:39.601Z,94690.91
2019-05-22T16:39:12.015Z,94692.97
2019-05-22T16:41:42.772Z,94696.33
2019-05-22T16:44:12.988Z,94690.59
2019-05-22T16:46:53.083Z,94694.38
2019-05-22T16:49:22.591Z,94695.88
2019-05-22T16:51:51.471Z,94711.81
2019-05-22T16:54:21.203Z,94708.36
2019-05-22T16:56:54.962Z,94711.78
2019-05-22T16:59:24.607Z,94713.97
2019-05-22T17:01:59.460Z,94714.39
2019-05-22T17:04:24.408Z,94723.22
2019-05-22T17:06:53.822Z,94728.94
2019-05-22T17:09:23.674Z,94735.24
2019-05-22T17:11:54.076Z,94747.34
2019-05-22T17:14:25.825Z,94746.52
2019-05-22T17:16:55.597Z,94745.35
2019-05-22T17:19:27.891Z,94751.89
2019-05-22T17:21:58.210Z,94745.78
2019-05-22T17:24:27.326Z,94743.30
2019-05-22T17:29:28.614Z,94743.82
2019-05-22T17:31:57.401Z,94748.89
2019-05-22T17:34:35.829Z,94749.30
2019-05-22T17:37:07.912Z,94748.87
2019-05-22T17:39:39.469Z,94746.60
2019-05-22T17:42:11.101Z,94754.58
2019-05-22T17:44:42.353Z,94763.11
2019-05-22T17:47:12.020Z,94765.52
2019-05-22T17:49:41.728Z,94766.85
2019-05-22T17:52:12.738Z,94770.28
2019-05-22T17:54:42.235Z,94771.64
2019-05-22T17:57:11.645Z,94770.06
2019-05-22T17:59:40.854Z,94772.47
2019-05-22T18:02:11.133Z,94764.59
2019-05-22T18:04:40.567Z,94762.75
2019-05-22T18:07:09.995Z,94764.63
2019-05-22T18:09:38.745Z,94761.26
2019-05-22T18:12:07.590Z,94771.78
2019-05-22T18:14:39.050Z,94778.92
2019-05-22T18:17:07.890Z,94783.95
2019-05-22T18:19:36.896Z,94788.95
2019-05-22T18:22:06.431Z,94789.48
2019-05-22T18:24:35.313Z,94801.56
2019-05-22T18:27:04.431Z,94802.36
2019-05-22T18:29:33.406Z,94811.81
2019-05-22T18:32:02.452Z,94819.70
2019-05-22T18:34:31.352Z,94828.14
2019-05-22T18:37:00.144Z,94850.72
2019-05-22T18:39:29.475Z,94855.19
2019-05-22T18:41:58.172Z,94859.92
2019-05-22T18:44:27.339Z,94850.45
2019-05-22T18:46:56.104Z,94849.66
2019-05-22T18:49:24.890Z,94854.11
2019-05-22T18:51:54.372Z,94860.16
2019-05-22T18:54:23.401Z,94853.08
2019-05-22T18:56:52.111Z,94835.23
2019-05-22T18:59:20.759Z,94830.51
2019-05-22T19:01:49.691Z,94829.69
2019-05-22T19:04:21.526Z,94827.35
2019-05-22T19:06:50.426Z,94756.83
2019-05-22T19:09:19.147Z,94848.90
2019-05-22T19:11:47.782Z,94849.45
2019-05-22T19:14:16.933Z,94853.12
2019-05-22T19:16:45.622Z,94846.30
2019-05-22T19:19:14.566Z,94857.09
2019-05-22T19:21:43.471Z,94859.45
2019-05-22T19:24:12.204Z,94863.41
2019-05-22T19:26:41.050Z,94871.05
2019-05-22T19:29:11.011Z,94876.84
2019-05-22T19:31:40.192Z,94826.17
2019-05-22T19:34:09.677Z,94878.39
2019-05-22T19:36:38.824Z,94883.92
2019-05-22T19:39:08.921Z,94892.59
2019-05-22T19:41:37.907Z,94885.75
2019-05-22T19:44:07.789Z,94882.35
2019-05-22T19:46:36.470Z,94897.31
2019-05-22T19:49:05.672Z,94905.19
2019-05-22T19:51:34.988Z,94907.30
2019-05-22T19:54:05.454Z,94890.73
2019-05-22T19:56:36.270Z,94880.23
2019-05-22T19:59:05.962Z,94880.25
2019-05-22T20:01:36.523Z,94866.07
2019-05-22T20:04:06.032Z,94857.94
2019-05-22T20:06:38.299Z,94858.45
2019-05-22T20:09:09.283Z,94857.64
2019-05-22T20:11:38.603Z,94853.15
2019-05-22T20:14:08.397Z,94857.59
2019-05-22T20:16:37.559Z,94858.06
2019-05-22T20:19:06.491Z,94863.80
2019-05-22T20:21:35.689Z,94859.05
2019-05-22T20:24:06.613Z,94864.23
2019-05-22T20:26:35.761Z,94861.55
2019-05-22T20:29:06.288Z,94866.78
2019-05-22T20:31:35.619Z,94866.47
2019-05-22T20:34:05.012Z,94860.66
2019-05-22T20:36:35.041Z,94855.13
2019-05-22T20:39:06.853Z,94860.07
2019-05-22T20:41:35.767Z,94855.28
2019-05-22T20:44:09.027Z,94853.71
2019-05-22T20:46:38.389Z,94860.70
2019-05-22T20:49:10.199Z,94857.27
2019-05-22T20:51:40.091Z,94858.25
2019-05-22T20:54:08.742Z,94862.66
2019-05-22T20:56:39.966Z,94858.44
2019-05-22T20:59:09.376Z,94851.30
2019-05-22T21:01:38.368Z,94858.56
2019-05-22T21:04:10.721Z,94863.49
2019-05-22T21:06:43.899Z,94866.86
2019-05-22T21:09:13.508Z,94867.08
2019-05-22T21:11:42.902Z,94874.89
2019-05-22T21:14:12.313Z,94883.49
2019-05-22T21:16:41.727Z,94880.84
2019-05-22T21:19:11.275Z,94877.64
2019-05-22T21:21:40.171Z,94876.81
2019-05-22T21:24:11.743Z,94884.61
2019-05-22T21:26:41.014Z,94889.02
2019-05-22T21:29:10.218Z,94891.59
2019-05-22T21:31:39.120Z,94890.28
2019-05-22T21:34:08.616Z,94891.31
2019-05-22T21:36:37.926Z,94886.36
2019-05-22T21:39:11.105Z,94885.61
2019-05-22T21:41:40.031Z,94885.61
2019-05-22T21:44:09.971Z,94881.93
2019-05-22T21:46:39.047Z,94890.05
2019-05-22T21:49:08.942Z,94889.53
2019-05-22T21:51:37.802Z,94894.59
2019-05-22T21:54:06.637Z,94890.16
2019-05-22T21:56:35.349Z,94895.63
2019-05-22T21:59:05.771Z,94911.83
2019-05-22T22:01:36.636Z,94905.57
2019-05-22T22:04:09.855Z,94914.95
2019-05-22T22:06:38.862Z,94917.29
2019-05-22T22:09:08.661Z,94924.06
2019-05-22T22:11:38.565Z,94925.33
2019-05-22T22:14:08.054Z,94924.50
2019-05-22T22:16:36.649Z,94923.95
2019-05-22T22:19:06.846Z,94927.86
2019-05-22T22:21:37.128Z,94926.00
2019-05-22T22:24:06.363Z,94917.05
2019-05-22T22:26:35.509Z,94920.09
2019-05-22T22:29:05.104Z,94923.22
2019-05-22T22:31:35.464Z,94920.05
2019-05-22T22:34:13.444Z,94924.44
2019-05-22T22:36:42.379Z,94922.05
2019-05-22T22:39:12.605Z,94927.00
2019-05-22T22:41:44.504Z,94922.80
2019-05-22T22:44:15.104Z,94919.30
2019-05-22T22:46:57.878Z,94911.34
2019-05-22T22:49:27.980Z,94910.41
2019-05-22T22:51:57.567Z,94907.88
2019-05-22T22:54:26.687Z,94915.38
2019-05-22T22:56:56.278Z,94922.88
2019-05-22T22:59:26.642Z,94928.61
2019-05-22T23:01:57.497Z,94925.70
2019-05-22T23:04:28.530Z,94921.36
2019-05-22T23:07:00.435Z,94919.19
2019-05-22T23:09:29.482Z,94924.47
2019-05-22T23:11:59.890Z,94928.84
2019-05-22T23:14:29.533Z,94929.41
2019-05-22T23:16:59.156Z,94929.16
2019-05-22T23:19:34.303Z,94918.75
2019-05-22T23:22:03.329Z,94912.31
2019-05-22T23:24:34.177Z,94912.83
2019-05-22T23:27:04.717Z,94902.39
2019-05-22T23:29:33.347Z,94903.32
2019-05-22T23:32:03.810Z,94908.29
2019-05-22T23:34:32.619Z,94899.41
2019-05-22T23:37:02.997Z,94903.07
2019-05-22T23:39:33.713Z,94903.37
2019-05-22T23:42:07.238Z,94892.93
2019-05-22T23:44:38.345Z,94890.42
2019-05-22T23:47:08.042Z,94884.87
2019-05-22T23:49:38.170Z,94890.09
2019-05-22T23:52:07.752Z,94895.25
2019-05-22T23:54:38.864Z,94904.38
2019-05-22T23:57:09.535Z,94892.23
2019-05-22T23:59:40.578Z,94901.78
